createdAt,value
2023-03-23T15:59:56.628Z,3.97
2023-03-23T16:03:02.204Z,4.43
2023-03-23T16:06:12.018Z,4.47
2023-03-23T16:09:20.949Z,3.97
2023-03-23T16:12:25.008Z,4.68
2023-03-23T16:15:27.850Z,4.43
2023-03-23T16:18:32.633Z,4.05
2023-03-23T16:21:35.740Z,4.33
2023-03-23T16:24:38.870Z,5.12
2023-03-23T16:27:42.438Z,4.70
2023-03-23T16:30:46.694Z,4.72
2023-03-23T16:33:49.582Z,7.22
2023-03-23T16:36:53.074Z,7.93
2023-03-23T16:39:55.917Z,4.75
2023-03-23T16:43:00.666Z,5.62
2023-03-23T16:46:03.553Z,3.67
2023-03-23T16:49:06.713Z,4.85
2023-03-23T16:52:10.230Z,4.93
2023-03-23T16:55:13.582Z,4.55
2023-03-23T16:58:18.231Z,4.37
2023-03-23T17:01:21.321Z,5.00
2023-03-23T17:04:26.244Z,5.60
2023-03-23T17:07:29.310Z,4.67
2023-03-23T17:10:32.556Z,4.50
2023-03-23T17:13:35.781Z,9.10
2023-03-23T17:16:40.347Z,9.52
2023-03-23T17:19:43.406Z,8.73
2023-03-23T17:22:47.257Z,9.57
2023-03-23T17:25:50.697Z,6.97
2023-03-23T17:28:54.665Z,7.43
2023-03-23T17:31:57.671Z,5.00
2023-03-23T17:35:00.965Z,4.80
2023-03-23T17:38:04.679Z,6.20
2023-03-23T17:41:08.381Z,9.68
2023-03-23T17:44:11.356Z,7.78
2023-03-23T17:47:15.911Z,9.40
2023-03-23T17:50:19.997Z,12.23
2023-03-23T17:53:22.811Z,10.53
2023-03-23T17:56:26.006Z,11.25
2023-03-23T17:59:29.778Z,9.95
2023-03-23T18:02:32.897Z,10.55
2023-03-23T18:05:39.848Z,11.95
2023-03-23T18:08:42.815Z,13.73
2023-03-23T18:11:46.683Z,7.93
2023-03-23T18:14:50.249Z,10.65
2023-03-23T18:17:54.557Z,13.88
2023-03-23T18:21:02.093Z,10.07
2023-03-23T18:24:09.300Z,9.57
2023-03-23T18:27:12.186Z,10.93
2023-03-23T18:30:15.868Z,12.30
2023-03-23T18:33:20.553Z,10.57
2023-03-23T18:36:26.576Z,12.40
2023-03-23T18:39:32.014Z,9.10
2023-03-23T18:42:35.247Z,10.77
2023-03-23T18:45:38.580Z,11.82
2023-03-23T18:48:42.133Z,15.50
2023-03-23T18:51:45.068Z,17.60
2023-03-23T18:54:48.511Z,20.67
2023-03-23T18:57:51.730Z,14.55
2023-03-23T19:00:57.501Z,15.30
2023-03-23T19:04:00.966Z,13.75
2023-03-23T19:07:13.376Z,13.70
2023-03-23T19:10:17.583Z,17.03
2023-03-23T19:13:21.019Z,15.65
2023-03-23T19:16:25.159Z,16.83
2023-03-23T19:19:28.556Z,20.83
2023-03-23T19:22:33.084Z,17.17
2023-03-23T19:25:36.742Z,28.20
2023-03-23T19:31:47.813Z,34.15
2023-03-23T19:34:51.398Z,37.72
2023-03-23T19:38:00.864Z,43.47
2023-03-23T19:41:05.815Z,44.00
2023-03-23T19:44:09.312Z,35.88
2023-03-23T19:47:12.732Z,34.33
2023-03-23T19:50:17.270Z,33.20
2023-03-23T19:53:20.809Z,35.40
2023-03-23T19:56:25.396Z,33.80
2023-03-23T19:59:29.000Z,38.10
2023-03-23T20:02:32.241Z,34.08
2023-03-23T20:05:36.322Z,30.85
2023-03-23T20:08:45.445Z,33.67
2023-03-23T20:11:50.219Z,33.47
2023-03-23T20:14:53.536Z,31.40
2023-03-23T20:18:01.152Z,33.83
2023-03-23T20:21:09.874Z,34.95
2023-03-23T20:24:13.290Z,34.90
2023-03-23T20:27:17.485Z,29.00
2023-03-23T20:30:20.675Z,34.75
2023-03-23T20:33:23.885Z,34.83
2023-03-23T20:36:30.083Z,33.13
2023-03-23T20:39:33.693Z,33.53
2023-03-23T20:42:36.677Z,31.40
2023-03-23T20:45:39.877Z,31.08
2023-03-23T20:48:43.006Z,30.45
2023-03-23T20:51:46.756Z,32.53
2023-03-23T20:54:51.206Z,31.75
2023-03-23T20:58:01.246Z,33.27
2023-03-23T21:01:05.752Z,30.42
2023-03-23T21:04:15.608Z,30.85
2023-03-23T21:07:23.337Z,29.00
2023-03-23T21:10:28.036Z,23.90
2023-03-23T21:13:31.733Z,28.23
2023-03-23T21:16:35.173Z,26.83
2023-03-23T21:19:38.494Z,24.85
2023-03-23T21:22:42.116Z,21.17
2023-03-23T21:25:45.730Z,21.55
2023-03-23T21:28:50.976Z,22.80
2023-03-23T21:32:05.259Z,21.15
2023-03-23T21:35:12.218Z,22.65
2023-03-23T21:38:15.191Z,21.20
2023-03-23T21:41:18.089Z,20.77
2023-03-23T21:44:27.039Z,20.90
2023-03-23T21:47:32.871Z,20.42
2023-03-23T21:50:37.882Z,21.52
2023-03-23T21:53:42.374Z,20.55
2023-03-23T21:56:45.192Z,21.25
2023-03-23T21:59:50.910Z,19.87
2023-03-23T22:02:53.975Z,20.08
2023-03-23T22:05:56.961Z,20.52
2023-03-23T22:12:10.136Z,18.02
2023-03-23T22:15:16.565Z,17.43
2023-03-23T22:18:19.311Z,18.33
2023-03-23T22:21:23.339Z,15.68
2023-03-23T22:24:26.461Z,16.08
2023-03-23T22:27:29.064Z,15.35
2023-03-23T22:30:33.345Z,16.03
2023-03-23T22:33:37.120Z,16.70
2023-03-23T22:36:41.376Z,16.30
2023-03-23T22:39:44.657Z,15.25
2023-03-23T22:42:47.427Z,14.65
2023-03-23T22:45:54.225Z,13.87
2023-03-23T22:48:57.091Z,14.38
2023-03-23T22:52:00.153Z,13.18
2023-03-23T22:55:04.825Z,13.62
2023-03-23T22:58:07.721Z,13.50
2023-03-23T23:01:14.022Z,12.43
2023-03-23T23:04:17.806Z,11.90
2023-03-23T23:07:21.729Z,11.93
2023-03-23T23:10:24.290Z,10.73
2023-03-23T23:13:27.817Z,12.57
2023-03-23T23:16:31.291Z,11.07
2023-03-23T23:19:34.016Z,11.70
2023-03-23T23:22:36.817Z,11.52
2023-03-23T23:25:39.644Z,11.12
2023-03-23T23:28:42.717Z,11.20
2023-03-23T23:31:47.624Z,9.87
2023-03-23T23:34:53.188Z,9.73
2023-03-23T23:37:55.932Z,11.20
2023-03-23T23:40:58.726Z,10.35
2023-03-23T23:44:01.860Z,9.77
2023-03-23T23:47:06.164Z,10.10
2023-03-23T23:50:11.773Z,9.55
